sensor_id;sensor_type;location;lat;lon;timestamp;P1;durP1;ratioP1;P2;durP2;ratioP2
8859;SDS011;4466;50.948;4.832;2023-08-24T00:01:16;8.65;;;3.38;;
8859;SDS011;4466;50.948;4.832;2023-08-24T00:03:43;4.72;;;3.53;;
8859;SDS011;4466;50.948;4.832;2023-08-24T00:06:10;5.57;;;3.60;;
8859;SDS011;4466;50.948;4.832;2023-08-24T00:08:36;4.55;;;3.33;;
8859;SDS011;4466;50.948;4.832;2023-08-24T00:11:02;4.63;;;3.58;;
8859;SDS011;4466;50.948;4.832;2023-08-24T00:13:28;5.32;;;3.40;;
8859;SDS011;4466;50.948;4.832;2023-08-24T00:15:54;6.70;;;3.45;;
8859;SDS011;4466;50.948;4.832;2023-08-24T00:18:19;5.82;;;3.60;;
8859;SDS011;4466;50.948;4.832;2023-08-24T00:20:47;6.20;;;3.88;;
8859;SDS011;4466;50.948;4.832;2023-08-24T00:23:13;7.22;;;4.18;;
8859;SDS011;4466;50.948;4.832;2023-08-24T00:25:39;7.65;;;4.05;;
8859;SDS011;4466;50.948;4.832;2023-08-24T00:28:06;7.75;;;4.15;;
8859;SDS011;4466;50.948;4.832;2023-08-24T00:30:32;6.28;;;4.00;;
8859;SDS011;4466;50.948;4.832;2023-08-24T00:32:57;10.90;;;4.20;;
8859;SDS011;4466;50.948;4.832;2023-08-24T00:35:23;4.63;;;3.90;;
8859;SDS011;4466;50.948;4.832;2023-08-24T00:37:49;5.80;;;3.97;;
8859;SDS011;4466;50.948;4.832;2023-08-24T00:40:15;6.47;;;3.30;;
8859;SDS011;4466;50.948;4.832;2023-08-24T00:42:42;11.07;;;4.05;;
8859;SDS011;4466;50.948;4.832;2023-08-24T00:45:09;6.13;;;4.05;;
8859;SDS011;4466;50.948;4.832;2023-08-24T00:47:40;8.10;;;4.07;;
8859;SDS011;4466;50.948;4.832;2023-08-24T00:50:08;7.55;;;3.90;;
8859;SDS011;4466;50.948;4.832;2023-08-24T00:52:35;5.40;;;4.07;;
8859;SDS011;4466;50.948;4.832;2023-08-24T00:55:02;10.95;;;5.03;;
8859;SDS011;4466;50.948;4.832;2023-08-24T00:57:29;6.57;;;4.60;;
8859;SDS011;4466;50.948;4.832;2023-08-24T00:59:55;9.48;;;4.93;;
8859;SDS011;4466;50.948;4.832;2023-08-24T01:02:21;7.85;;;5.22;;
8859;SDS011;4466;50.948;4.832;2023-08-24T01:04:47;9.35;;;5.38;;
8859;SDS011;4466;50.948;4.832;2023-08-24T01:07:13;9.98;;;5.80;;
8859;SDS011;4466;50.948;4.832;2023-08-24T01:09:40;8.98;;;4.97;;
8859;SDS011;4466;50.948;4.832;2023-08-24T01:12:24;8.48;;;5.10;;
8859;SDS011;4466;50.948;4.832;2023-08-24T01:15:13;8.85;;;5.10;;
8859;SDS011;4466;50.948;4.832;2023-08-24T01:17:46;9.55;;;5.32;;
8859;SDS011;4466;50.948;4.832;2023-08-24T01:20:12;9.68;;;4.75;;
8859;SDS011;4466;50.948;4.832;2023-08-24T01:23:00;12.68;;;5.18;;
8859;SDS011;4466;50.948;4.832;2023-08-24T01:28:04;8.20;;;5.05;;
8859;SDS011;4466;50.948;4.832;2023-08-24T01:30:32;7.35;;;5.20;;
8859;SDS011;4466;50.948;4.832;2023-08-24T01:33:02;7.43;;;4.88;;
8859;SDS011;4466;50.948;4.832;2023-08-24T01:35:29;6.85;;;5.13;;
8859;SDS011;4466;50.948;4.832;2023-08-24T01:37:56;7.10;;;4.70;;
8859;SDS011;4466;50.948;4.832;2023-08-24T01:40:26;7.45;;;5.20;;
8859;SDS011;4466;50.948;4.832;2023-08-24T01:43:15;10.00;;;4.78;;
8859;SDS011;4466;50.948;4.832;2023-08-24T01:45:43;9.90;;;5.07;;
8859;SDS011;4466;50.948;4.832;2023-08-24T01:48:10;9.30;;;5.35;;
8859;SDS011;4466;50.948;4.832;2023-08-24T01:50:37;8.75;;;5.20;;
8859;SDS011;4466;50.948;4.832;2023-08-24T01:53:04;9.75;;;5.82;;
8859;SDS011;4466;50.948;4.832;2023-08-24T01:55:30;8.45;;;5.22;;
8859;SDS011;4466;50.948;4.832;2023-08-24T01:57:55;7.78;;;4.90;;
8859;SDS011;4466;50.948;4.832;2023-08-24T02:00:22;6.30;;;4.97;;
8859;SDS011;4466;50.948;4.832;2023-08-24T02:02:48;9.13;;;4.95;;
8859;SDS011;4466;50.948;4.832;2023-08-24T02:05:13;5.47;;;4.95;;
8859;SDS011;4466;50.948;4.832;2023-08-24T02:07:39;7.80;;;5.15;;
8859;SDS011;4466;50.948;4.832;2023-08-24T02:10:05;6.72;;;4.75;;
8859;SDS011;4466;50.948;4.832;2023-08-24T02:12:32;6.03;;;5.00;;
8859;SDS011;4466;50.948;4.832;2023-08-24T02:14:57;7.38;;;5.28;;
8859;SDS011;4466;50.948;4.832;2023-08-24T02:17:23;6.75;;;4.72;;
8859;SDS011;4466;50.948;4.832;2023-08-24T02:19:49;8.90;;;5.53;;
8859;SDS011;4466;50.948;4.832;2023-08-24T02:22:15;10.80;;;5.60;;
8859;SDS011;4466;50.948;4.832;2023-08-24T02:24:40;9.65;;;5.03;;
8859;SDS011;4466;50.948;4.832;2023-08-24T02:27:06;7.30;;;4.70;;
8859;SDS011;4466;50.948;4.832;2023-08-24T02:29:32;9.80;;;5.60;;
8859;SDS011;4466;50.948;4.832;2023-08-24T02:31:58;12.57;;;5.55;;
8859;SDS011;4466;50.948;4.832;2023-08-24T02:34:23;9.82;;;6.30;;
8859;SDS011;4466;50.948;4.832;2023-08-24T02:36:49;9.45;;;6.25;;
8859;SDS011;4466;50.948;4.832;2023-08-24T02:39:15;9.85;;;6.35;;
8859;SDS011;4466;50.948;4.832;2023-08-24T02:41:41;13.30;;;6.82;;
8859;SDS011;4466;50.948;4.832;2023-08-24T02:44:06;9.20;;;7.22;;
8859;SDS011;4466;50.948;4.832;2023-08-24T02:46:32;13.07;;;7.63;;
8859;SDS011;4466;50.948;4.832;2023-08-24T02:48:58;11.35;;;7.75;;
8859;SDS011;4466;50.948;4.832;2023-08-24T02:51:23;9.95;;;8.05;;
8859;SDS011;4466;50.948;4.832;2023-08-24T02:53:49;12.38;;;8.15;;
8859;SDS011;4466;50.948;4.832;2023-08-24T02:56:16;14.35;;;8.93;;
8859;SDS011;4466;50.948;4.832;2023-08-24T02:58:41;9.75;;;7.60;;
8859;SDS011;4466;50.948;4.832;2023-08-24T03:01:07;9.80;;;8.20;;
8859;SDS011;4466;50.948;4.832;2023-08-24T03:03:33;12.27;;;8.05;;
8859;SDS011;4466;50.948;4.832;2023-08-24T03:06:04;10.68;;;8.32;;
8859;SDS011;4466;50.948;4.832;2023-08-24T03:08:31;11.75;;;7.78;;
8859;SDS011;4466;50.948;4.832;2023-08-24T03:10:58;11.45;;;7.35;;
8859;SDS011;4466;50.948;4.832;2023-08-24T03:13:24;11.45;;;7.43;;
8859;SDS011;4466;50.948;4.832;2023-08-24T03:15:50;10.40;;;7.35;;
8859;SDS011;4466;50.948;4.832;2023-08-24T03:18:17;11.57;;;7.55;;
8859;SDS011;4466;50.948;4.832;2023-08-24T03:20:44;10.90;;;7.78;;
8859;SDS011;4466;50.948;4.832;2023-08-24T03:23:10;10.95;;;7.97;;
8859;SDS011;4466;50.948;4.832;2023-08-24T03:25:36;10.15;;;7.85;;
8859;SDS011;4466;50.948;4.832;2023-08-24T03:28:03;10.68;;;7.93;;
8859;SDS011;4466;50.948;4.832;2023-08-24T03:30:30;12.27;;;8.13;;
8859;SDS011;4466;50.948;4.832;2023-08-24T03:32:56;9.98;;;8.10;;
8859;SDS011;4466;50.948;4.832;2023-08-24T03:35:21;13.07;;;8.57;;
8859;SDS011;4466;50.948;4.832;2023-08-24T03:37:47;13.68;;;8.77;;
8859;SDS011;4466;50.948;4.832;2023-08-24T03:40:13;12.75;;;8.93;;
8859;SDS011;4466;50.948;4.832;2023-08-24T03:42:38;11.23;;;8.07;;
8859;SDS011;4466;50.948;4.832;2023-08-24T03:45:05;11.80;;;8.13;;
8859;SDS011;4466;50.948;4.832;2023-08-24T03:47:31;13.50;;;9.20;;
8859;SDS011;4466;50.948;4.832;2023-08-24T03:49:56;10.45;;;8.75;;
8859;SDS011;4466;50.948;4.832;2023-08-24T03:52:22;12.07;;;9.05;;
8859;SDS011;4466;50.948;4.832;2023-08-24T03:54:48;12.02;;;8.10;;
8859;SDS011;4466;50.948;4.832;2023-08-24T03:57:14;11.45;;;8.45;;
8859;SDS011;4466;50.948;4.832;2023-08-24T03:59:40;8.90;;;8.00;;
8859;SDS011;4466;50.948;4.832;2023-08-24T04:02:06;12.32;;;8.27;;
8859;SDS011;4466;50.948;4.832;2023-08-24T04:04:32;12.30;;;8.45;;
8859;SDS011;4466;50.948;4.832;2023-08-24T04:06:58;11.57;;;9.18;;
8859;SDS011;4466;50.948;4.832;2023-08-24T04:09:24;11.00;;;8.73;;
8859;SDS011;4466;50.948;4.832;2023-08-24T04:11:49;12.25;;;8.38;;
8859;SDS011;4466;50.948;4.832;2023-08-24T04:14:15;12.75;;;8.27;;
8859;SDS011;4466;50.948;4.832;2023-08-24T04:16:41;13.43;;;8.57;;
8859;SDS011;4466;50.948;4.832;2023-08-24T04:19:07;11.43;;;8.95;;
8859;SDS011;4466;50.948;4.832;2023-08-24T04:21:33;16.25;;;8.55;;
8859;SDS011;4466;50.948;4.832;2023-08-24T04:23:59;14.13;;;8.70;;
8859;SDS011;4466;50.948;4.832;2023-08-24T04:26:24;12.10;;;8.55;;
8859;SDS011;4466;50.948;4.832;2023-08-24T04:28:50;10.98;;;8.13;;
8859;SDS011;4466;50.948;4.832;2023-08-24T04:31:16;12.82;;;8.50;;
8859;SDS011;4466;50.948;4.832;2023-08-24T04:33:41;10.20;;;8.50;;
8859;SDS011;4466;50.948;4.832;2023-08-24T04:36:07;10.32;;;8.25;;
8859;SDS011;4466;50.948;4.832;2023-08-24T04:38:33;13.82;;;8.52;;
8859;SDS011;4466;50.948;4.832;2023-08-24T04:40:59;10.13;;;7.88;;
8859;SDS011;4466;50.948;4.832;2023-08-24T04:43:25;14.30;;;8.35;;
8859;SDS011;4466;50.948;4.832;2023-08-24T04:45:51;10.23;;;7.90;;
8859;SDS011;4466;50.948;4.832;2023-08-24T04:48:19;13.40;;;8.30;;
8859;SDS011;4466;50.948;4.832;2023-08-24T04:50:45;10.13;;;8.55;;
8859;SDS011;4466;50.948;4.832;2023-08-24T04:53:15;9.77;;;8.25;;
8859;SDS011;4466;50.948;4.832;2023-08-24T04:55:44;12.18;;;8.70;;
8859;SDS011;4466;50.948;4.832;2023-08-24T04:58:10;11.02;;;8.25;;
8859;SDS011;4466;50.948;4.832;2023-08-24T05:00:37;15.50;;;8.73;;
8859;SDS011;4466;50.948;4.832;2023-08-24T05:03:03;10.48;;;8.77;;
8859;SDS011;4466;50.948;4.832;2023-08-24T05:05:30;12.10;;;8.90;;
8859;SDS011;4466;50.948;4.832;2023-08-24T05:08:00;12.40;;;8.55;;
8859;SDS011;4466;50.948;4.832;2023-08-24T05:10:29;11.32;;;8.95;;
8859;SDS011;4466;50.948;4.832;2023-08-24T05:12:56;11.32;;;8.13;;
8859;SDS011;4466;50.948;4.832;2023-08-24T05:15:22;10.13;;;7.57;;
8859;SDS011;4466;50.948;4.832;2023-08-24T05:17:47;11.52;;;8.70;;
8859;SDS011;4466;50.948;4.832;2023-08-24T05:20:13;10.93;;;7.65;;
8859;SDS011;4466;50.948;4.832;2023-08-24T05:22:39;12.02;;;8.18;;
8859;SDS011;4466;50.948;4.832;2023-08-24T05:25:05;10.88;;;8.40;;
8859;SDS011;4466;50.948;4.832;2023-08-24T05:27:31;10.23;;;8.88;;
8859;SDS011;4466;50.948;4.832;2023-08-24T05:29:57;8.85;;;7.90;;
8859;SDS011;4466;50.948;4.832;2023-08-24T05:32:23;10.43;;;7.63;;
8859;SDS011;4466;50.948;4.832;2023-08-24T05:34:49;11.95;;;8.35;;
8859;SDS011;4466;50.948;4.832;2023-08-24T05:37:15;10.70;;;7.65;;
8859;SDS011;4466;50.948;4.832;2023-08-24T05:39:41;11.30;;;8.52;;
8859;SDS011;4466;50.948;4.832;2023-08-24T05:42:07;13.88;;;8.57;;
8859;SDS011;4466;50.948;4.832;2023-08-24T05:44:34;12.48;;;8.55;;
8859;SDS011;4466;50.948;4.832;2023-08-24T05:47:00;11.18;;;8.27;;
8859;SDS011;4466;50.948;4.832;2023-08-24T05:49:25;12.35;;;8.18;;
8859;SDS011;4466;50.948;4.832;2023-08-24T05:51:51;12.70;;;8.43;;
8859;SDS011;4466;50.948;4.832;2023-08-24T05:54:17;12.80;;;8.07;;
8859;SDS011;4466;50.948;4.832;2023-08-24T05:56:44;8.90;;;7.15;;
8859;SDS011;4466;50.948;4.832;2023-08-24T05:59:13;11.98;;;7.28;;
8859;SDS011;4466;50.948;4.832;2023-08-24T06:01:39;14.05;;;6.70;;
8859;SDS011;4466;50.948;4.832;2023-08-24T06:04:06;9.10;;;6.97;;
8859;SDS011;4466;50.948;4.832;2023-08-24T06:06:32;12.35;;;7.10;;
8859;SDS011;4466;50.948;4.832;2023-08-24T06:08:58;9.70;;;7.10;;
8859;SDS011;4466;50.948;4.832;2023-08-24T06:11:23;11.18;;;7.22;;
8859;SDS011;4466;50.948;4.832;2023-08-24T06:13:49;10.00;;;7.22;;
8859;SDS011;4466;50.948;4.832;2023-08-24T06:16:17;9.57;;;6.90;;
8859;SDS011;4466;50.948;4.832;2023-08-24T06:18:42;11.77;;;6.78;;
8859;SDS011;4466;50.948;4.832;2023-08-24T06:21:09;9.00;;;6.20;;
8859;SDS011;4466;50.948;4.832;2023-08-24T06:23:34;11.90;;;6.57;;
8859;SDS011;4466;50.948;4.832;2023-08-24T06:26:00;10.20;;;6.13;;
8859;SDS011;4466;50.948;4.832;2023-08-24T06:28:26;10.32;;;6.00;;
8859;SDS011;4466;50.948;4.832;2023-08-24T06:30:52;10.95;;;5.63;;
8859;SDS011;4466;50.948;4.832;2023-08-24T06:33:20;10.30;;;5.90;;
8859;SDS011;4466;50.948;4.832;2023-08-24T06:35:46;7.50;;;5.50;;
8859;SDS011;4466;50.948;4.832;2023-08-24T06:38:13;9.13;;;5.95;;
8859;SDS011;4466;50.948;4.832;2023-08-24T06:40:39;10.73;;;6.07;;
8859;SDS011;4466;50.948;4.832;2023-08-24T06:43:04;8.43;;;6.07;;
8859;SDS011;4466;50.948;4.832;2023-08-24T06:45:30;7.93;;;5.63;;
8859;SDS011;4466;50.948;4.832;2023-08-24T06:47:56;9.07;;;5.78;;
8859;SDS011;4466;50.948;4.832;2023-08-24T06:50:22;9.43;;;5.88;;
8859;SDS011;4466;50.948;4.832;2023-08-24T06:52:48;7.25;;;5.70;;
8859;SDS011;4466;50.948;4.832;2023-08-24T06:55:14;7.82;;;5.68;;
8859;SDS011;4466;50.948;4.832;2023-08-24T06:57:40;9.98;;;5.43;;
8859;SDS011;4466;50.948;4.832;2023-08-24T07:00:06;9.15;;;5.90;;
8859;SDS011;4466;50.948;4.832;2023-08-24T07:02:34;8.75;;;5.75;;
8859;SDS011;4466;50.948;4.832;2023-08-24T07:05:00;10.50;;;5.40;;
8859;SDS011;4466;50.948;4.832;2023-08-24T07:07:26;6.65;;;4.95;;
8859;SDS011;4466;50.948;4.832;2023-08-24T07:09:51;9.25;;;5.60;;
8859;SDS011;4466;50.948;4.832;2023-08-24T07:12:17;8.63;;;5.80;;
8859;SDS011;4466;50.948;4.832;2023-08-24T07:14:43;11.95;;;5.32;;
8859;SDS011;4466;50.948;4.832;2023-08-24T07:17:08;8.18;;;5.35;;
8859;SDS011;4466;50.948;4.832;2023-08-24T07:19:34;7.72;;;5.20;;
8859;SDS011;4466;50.948;4.832;2023-08-24T07:22:00;9.07;;;5.50;;
8859;SDS011;4466;50.948;4.832;2023-08-24T07:24:26;9.02;;;5.25;;
8859;SDS011;4466;50.948;4.832;2023-08-24T07:26:53;10.45;;;5.05;;
8859;SDS011;4466;50.948;4.832;2023-08-24T07:29:20;8.05;;;5.05;;
8859;SDS011;4466;50.948;4.832;2023-08-24T07:31:46;9.88;;;5.07;;
8859;SDS011;4466;50.948;4.832;2023-08-24T07:34:11;7.78;;;4.82;;
8859;SDS011;4466;50.948;4.832;2023-08-24T07:36:37;6.10;;;4.93;;
8859;SDS011;4466;50.948;4.832;2023-08-24T07:39:03;7.20;;;4.47;;
8859;SDS011;4466;50.948;4.832;2023-08-24T07:41:29;8.25;;;4.55;;
8859;SDS011;4466;50.948;4.832;2023-08-24T07:43:55;8.25;;;4.75;;
8859;SDS011;4466;50.948;4.832;2023-08-24T07:46:21;5.95;;;4.20;;
8859;SDS011;4466;50.948;4.832;2023-08-24T07:48:46;8.60;;;4.70;;
8859;SDS011;4466;50.948;4.832;2023-08-24T07:51:12;6.47;;;4.80;;
8859;SDS011;4466;50.948;4.832;2023-08-24T07:53:37;8.00;;;4.40;;
8859;SDS011;4466;50.948;4.832;2023-08-24T07:56:03;9.55;;;4.50;;
8859;SDS011;4466;50.948;4.832;2023-08-24T07:58:29;6.85;;;4.38;;
8859;SDS011;4466;50.948;4.832;2023-08-24T08:00:56;6.63;;;4.15;;
8859;SDS011;4466;50.948;4.832;2023-08-24T08:03:22;6.47;;;4.32;;
8859;SDS011;4466;50.948;4.832;2023-08-24T08:05:47;7.07;;;4.60;;
8859;SDS011;4466;50.948;4.832;2023-08-24T08:08:14;6.72;;;4.18;;
8859;SDS011;4466;50.948;4.832;2023-08-24T08:10:40;7.43;;;4.38;;
8859;SDS011;4466;50.948;4.832;2023-08-24T08:13:06;8.68;;;4.10;;
8859;SDS011;4466;50.948;4.832;2023-08-24T08:15:32;7.85;;;4.78;;
8859;SDS011;4466;50.948;4.832;2023-08-24T08:17:58;5.95;;;3.80;;
8859;SDS011;4466;50.948;4.832;2023-08-24T08:20:24;11.32;;;4.38;;
8859;SDS011;4466;50.948;4.832;2023-08-24T08:22:50;5.78;;;4.10;;
8859;SDS011;4466;50.948;4.832;2023-08-24T08:25:15;6.50;;;3.88;;
8859;SDS011;4466;50.948;4.832;2023-08-24T08:27:43;7.32;;;3.80;;
8859;SDS011;4466;50.948;4.832;2023-08-24T08:30:09;7.60;;;4.00;;
8859;SDS011;4466;50.948;4.832;2023-08-24T08:32:35;4.53;;;3.45;;
8859;SDS011;4466;50.948;4.832;2023-08-24T08:35:01;4.95;;;3.80;;
8859;SDS011;4466;50.948;4.832;2023-08-24T08:37:30;5.45;;;3.83;;
8859;SDS011;4466;50.948;4.832;2023-08-24T08:39:57;7.18;;;3.80;;
8859;SDS011;4466;50.948;4.832;2023-08-24T08:42:22;5.60;;;3.30;;
8859;SDS011;4466;50.948;4.832;2023-08-24T08:44:48;4.88;;;3.70;;
8859;SDS011;4466;50.948;4.832;2023-08-24T08:47:15;9.27;;;4.50;;
8859;SDS011;4466;50.948;4.832;2023-08-24T08:49:45;8.02;;;3.80;;
8859;SDS011;4466;50.948;4.832;2023-08-24T08:52:13;6.18;;;3.88;;
8859;SDS011;4466;50.948;4.832;2023-08-24T08:54:39;6.22;;;3.70;;
8859;SDS011;4466;50.948;4.832;2023-08-24T08:57:05;5.70;;;4.03;;
8859;SDS011;4466;50.948;4.832;2023-08-24T08:59:31;6.78;;;4.05;;
8859;SDS011;4466;50.948;4.832;2023-08-24T09:02:02;7.53;;;3.60;;
8859;SDS011;4466;50.948;4.832;2023-08-24T09:04:31;7.22;;;3.83;;
8859;SDS011;4466;50.948;4.832;2023-08-24T09:07:01;8.00;;;4.40;;
8859;SDS011;4466;50.948;4.832;2023-08-24T09:09:29;6.07;;;3.85;;
8859;SDS011;4466;50.948;4.832;2023-08-24T09:11:55;7.93;;;4.18;;
8859;SDS011;4466;50.948;4.832;2023-08-24T09:14:22;7.32;;;3.90;;
8859;SDS011;4466;50.948;4.832;2023-08-24T09:16:47;9.25;;;3.67;;
8859;SDS011;4466;50.948;4.832;2023-08-24T09:19:14;8.40;;;4.22;;
8859;SDS011;4466;50.948;4.832;2023-08-24T09:21:40;8.32;;;4.55;;
8859;SDS011;4466;50.948;4.832;2023-08-24T09:24:07;9.43;;;4.78;;
8859;SDS011;4466;50.948;4.832;2023-08-24T09:26:34;7.05;;;4.40;;
8859;SDS011;4466;50.948;4.832;2023-08-24T09:29:10;7.65;;;4.38;;
8859;SDS011;4466;50.948;4.832;2023-08-24T09:31:38;7.78;;;4.70;;
8859;SDS011;4466;50.948;4.832;2023-08-24T09:34:04;9.23;;;4.28;;
8859;SDS011;4466;50.948;4.832;2023-08-24T09:36:34;6.93;;;4.00;;
8859;SDS011;4466;50.948;4.832;2023-08-24T09:39:01;6.85;;;4.03;;
8859;SDS011;4466;50.948;4.832;2023-08-24T09:41:46;7.32;;;4.43;;
8859;SDS011;4466;50.948;4.832;2023-08-24T09:44:13;7.43;;;4.45;;
8859;SDS011;4466;50.948;4.832;2023-08-24T09:46:39;7.97;;;4.18;;
8859;SDS011;4466;50.948;4.832;2023-08-24T09:49:06;9.38;;;4.20;;
8859;SDS011;4466;50.948;4.832;2023-08-24T09:51:33;7.22;;;4.05;;
8859;SDS011;4466;50.948;4.832;2023-08-24T09:54:01;6.38;;;4.40;;
8859;SDS011;4466;50.948;4.832;2023-08-24T09:56:33;9.20;;;4.10;;
8859;SDS011;4466;50.948;4.832;2023-08-24T09:59:03;6.88;;;3.80;;
8859;SDS011;4466;50.948;4.832;2023-08-24T10:01:42;6.20;;;3.78;;
8859;SDS011;4466;50.948;4.832;2023-08-24T10:04:09;5.10;;;3.55;;
8859;SDS011;4466;50.948;4.832;2023-08-24T10:06:37;6.47;;;3.35;;
8859;SDS011;4466;50.948;4.832;2023-08-24T10:09:06;7.22;;;4.03;;
8859;SDS011;4466;50.948;4.832;2023-08-24T10:11:35;6.20;;;4.03;;
8859;SDS011;4466;50.948;4.832;2023-08-24T10:14:12;6.18;;;3.80;;
8859;SDS011;4466;50.948;4.832;2023-08-24T10:16:44;7.40;;;4.20;;
8859;SDS011;4466;50.948;4.832;2023-08-24T10:19:12;11.60;;;4.65;;
8859;SDS011;4466;50.948;4.832;2023-08-24T10:21:38;10.98;;;4.65;;
8859;SDS011;4466;50.948;4.832;2023-08-24T10:24:05;9.52;;;4.60;;
8859;SDS011;4466;50.948;4.832;2023-08-24T10:26:33;7.72;;;4.28;;
8859;SDS011;4466;50.948;4.832;2023-08-24T10:28:59;5.88;;;4.28;;
8859;SDS011;4466;50.948;4.832;2023-08-24T10:31:25;6.88;;;4.00;;
8859;SDS011;4466;50.948;4.832;2023-08-24T10:33:52;6.57;;;3.83;;
8859;SDS011;4466;50.948;4.832;2023-08-24T10:36:20;8.50;;;4.32;;
8859;SDS011;4466;50.948;4.832;2023-08-24T10:38:47;6.32;;;4.40;;
8859;SDS011;4466;50.948;4.832;2023-08-24T10:41:13;6.97;;;4.30;;
8859;SDS011;4466;50.948;4.832;2023-08-24T10:43:39;7.30;;;4.90;;
8859;SDS011;4466;50.948;4.832;2023-08-24T10:46:12;13.02;;;4.88;;
8859;SDS011;4466;50.948;4.832;2023-08-24T10:53:58;5.20;;;4.60;;
8859;SDS011;4466;50.948;4.832;2023-08-24T10:56:32;9.25;;;5.53;;
8859;SDS011;4466;50.948;4.832;2023-08-24T10:59:10;9.02;;;4.85;;
8859;SDS011;4466;50.948;4.832;2023-08-24T11:01:40;7.25;;;4.43;;
8859;SDS011;4466;50.948;4.832;2023-08-24T11:04:07;9.57;;;4.32;;
8859;SDS011;4466;50.948;4.832;2023-08-24T11:06:50;7.60;;;4.53;;
8859;SDS011;4466;50.948;4.832;2023-08-24T11:09:17;13.00;;;4.93;;
8859;SDS011;4466;50.948;4.832;2023-08-24T11:11:42;9.98;;;5.55;;
8859;SDS011;4466;50.948;4.832;2023-08-24T11:14:24;7.03;;;4.63;;
8859;SDS011;4466;50.948;4.832;2023-08-24T11:17:00;8.15;;;4.25;;
8859;SDS011;4466;50.948;4.832;2023-08-24T11:19:46;6.50;;;4.10;;
8859;SDS011;4466;50.948;4.832;2023-08-24T11:22:19;6.30;;;4.25;;
8859;SDS011;4466;50.948;4.832;2023-08-24T11:24:46;5.55;;;4.22;;
8859;SDS011;4466;50.948;4.832;2023-08-24T11:27:12;7.32;;;4.20;;
8859;SDS011;4466;50.948;4.832;2023-08-24T11:29:37;5.10;;;4.05;;
8859;SDS011;4466;50.948;4.832;2023-08-24T11:32:03;7.80;;;4.35;;
8859;SDS011;4466;50.948;4.832;2023-08-24T11:34:29;6.68;;;4.28;;
8859;SDS011;4466;50.948;4.832;2023-08-24T11:36:55;8.10;;;4.30;;
8859;SDS011;4466;50.948;4.832;2023-08-24T11:39:22;7.10;;;4.60;;
8859;SDS011;4466;50.948;4.832;2023-08-24T11:41:56;6.95;;;4.40;;
8859;SDS011;4466;50.948;4.832;2023-08-24T11:44:28;7.40;;;4.32;;
8859;SDS011;4466;50.948;4.832;2023-08-24T11:46:55;6.90;;;4.75;;
8859;SDS011;4466;50.948;4.832;2023-08-24T11:49:22;6.50;;;4.00;;
8859;SDS011;4466;50.948;4.832;2023-08-24T11:51:48;6.95;;;4.43;;
8859;SDS011;4466;50.948;4.832;2023-08-24T11:54:16;6.63;;;4.22;;
8859;SDS011;4466;50.948;4.832;2023-08-24T11:56:43;5.95;;;4.10;;
8859;SDS011;4466;50.948;4.832;2023-08-24T11:59:14;7.13;;;4.57;;
8859;SDS011;4466;50.948;4.832;2023-08-24T12:01:41;8.63;;;4.72;;
8859;SDS011;4466;50.948;4.832;2023-08-24T12:04:07;7.53;;;4.20;;
8859;SDS011;4466;50.948;4.832;2023-08-24T12:06:33;5.78;;;4.13;;
8859;SDS011;4466;50.948;4.832;2023-08-24T12:08:59;5.88;;;4.10;;
8859;SDS011;4466;50.948;4.832;2023-08-24T12:11:25;6.40;;;4.00;;
8859;SDS011;4466;50.948;4.832;2023-08-24T12:13:52;8.30;;;4.68;;
8859;SDS011;4466;50.948;4.832;2023-08-24T12:16:21;8.05;;;4.20;;
8859;SDS011;4466;50.948;4.832;2023-08-24T12:18:53;7.05;;;3.95;;
8859;SDS011;4466;50.948;4.832;2023-08-24T12:21:20;7.15;;;4.40;;
8859;SDS011;4466;50.948;4.832;2023-08-24T12:24:02;6.28;;;4.78;;
8859;SDS011;4466;50.948;4.832;2023-08-24T12:26:30;9.35;;;4.68;;
8859;SDS011;4466;50.948;4.832;2023-08-24T12:29:00;7.13;;;4.80;;
8859;SDS011;4466;50.948;4.832;2023-08-24T12:31:28;6.18;;;4.13;;
8859;SDS011;4466;50.948;4.832;2023-08-24T12:36:35;5.93;;;5.13;;
8859;SDS011;4466;50.948;4.832;2023-08-24T12:39:03;8.07;;;4.70;;
8859;SDS011;4466;50.948;4.832;2023-08-24T12:41:29;7.35;;;4.43;;
8859;SDS011;4466;50.948;4.832;2023-08-24T12:43:55;7.95;;;5.38;;
8859;SDS011;4466;50.948;4.832;2023-08-24T12:46:21;7.40;;;4.97;;
8859;SDS011;4466;50.948;4.832;2023-08-24T12:48:47;5.40;;;4.90;;
8859;SDS011;4466;50.948;4.832;2023-08-24T12:51:13;8.75;;;5.07;;
8859;SDS011;4466;50.948;4.832;2023-08-24T12:53:38;5.47;;;4.20;;
8859;SDS011;4466;50.948;4.832;2023-08-24T12:56:04;7.03;;;4.80;;
8859;SDS011;4466;50.948;4.832;2023-08-24T12:58:30;6.53;;;4.70;;
8859;SDS011;4466;50.948;4.832;2023-08-24T13:00:56;7.38;;;4.50;;
8859;SDS011;4466;50.948;4.832;2023-08-24T13:03:21;7.28;;;4.57;;
8859;SDS011;4466;50.948;4.832;2023-08-24T13:05:48;8.18;;;4.35;;
8859;SDS011;4466;50.948;4.832;2023-08-24T13:08:13;8.27;;;4.15;;
8859;SDS011;4466;50.948;4.832;2023-08-24T13:10:39;5.00;;;3.65;;
8859;SDS011;4466;50.948;4.832;2023-08-24T13:13:05;4.75;;;3.70;;
8859;SDS011;4466;50.948;4.832;2023-08-24T13:15:30;7.97;;;3.85;;
8859;SDS011;4466;50.948;4.832;2023-08-24T13:17:56;6.85;;;3.65;;
8859;SDS011;4466;50.948;4.832;2023-08-24T13:20:22;5.63;;;3.20;;
8859;SDS011;4466;50.948;4.832;2023-08-24T13:22:48;4.38;;;3.10;;
8859;SDS011;4466;50.948;4.832;2023-08-24T13:25:14;6.00;;;3.03;;
8859;SDS011;4466;50.948;4.832;2023-08-24T13:27:40;6.78;;;3.30;;
8859;SDS011;4466;50.948;4.832;2023-08-24T13:30:05;5.13;;;2.92;;
8859;SDS011;4466;50.948;4.832;2023-08-24T13:32:31;4.65;;;2.97;;
8859;SDS011;4466;50.948;4.832;2023-08-24T13:34:57;4.88;;;2.67;;
8859;SDS011;4466;50.948;4.832;2023-08-24T13:37:23;4.40;;;2.88;;
8859;SDS011;4466;50.948;4.832;2023-08-24T13:39:49;4.63;;;2.60;;
8859;SDS011;4466;50.948;4.832;2023-08-24T13:42:16;3.80;;;2.47;;
8859;SDS011;4466;50.948;4.832;2023-08-24T13:44:41;6.10;;;2.70;;
8859;SDS011;4466;50.948;4.832;2023-08-24T13:47:07;4.43;;;2.20;;
8859;SDS011;4466;50.948;4.832;2023-08-24T13:49:33;4.32;;;2.38;;
8859;SDS011;4466;50.948;4.832;2023-08-24T13:51:59;3.60;;;2.08;;
8859;SDS011;4466;50.948;4.832;2023-08-24T13:54:24;6.60;;;2.28;;
8859;SDS011;4466;50.948;4.832;2023-08-24T13:56:51;4.22;;;2.35;;
8859;SDS011;4466;50.948;4.832;2023-08-24T13:59:19;5.10;;;2.08;;
8859;SDS011;4466;50.948;4.832;2023-08-24T14:01:46;4.53;;;1.85;;
8859;SDS011;4466;50.948;4.832;2023-08-24T14:04:11;2.75;;;2.10;;
8859;SDS011;4466;50.948;4.832;2023-08-24T14:06:37;4.38;;;1.90;;
8859;SDS011;4466;50.948;4.832;2023-08-24T14:09:03;4.82;;;1.95;;
8859;SDS011;4466;50.948;4.832;2023-08-24T14:11:29;6.53;;;1.90;;
8859;SDS011;4466;50.948;4.832;2023-08-24T14:13:55;5.15;;;1.80;;
8859;SDS011;4466;50.948;4.832;2023-08-24T14:16:21;3.85;;;1.77;;
8859;SDS011;4466;50.948;4.832;2023-08-24T14:18:47;4.63;;;1.90;;
8859;SDS011;4466;50.948;4.832;2023-08-24T14:21:13;4.95;;;1.95;;
8859;SDS011;4466;50.948;4.832;2023-08-24T14:23:40;2.83;;;1.77;;
8859;SDS011;4466;50.948;4.832;2023-08-24T14:26:06;4.32;;;1.58;;
8859;SDS011;4466;50.948;4.832;2023-08-24T14:28:47;7.40;;;1.70;;
8859;SDS011;4466;50.948;4.832;2023-08-24T14:31:15;4.43;;;1.52;;
8859;SDS011;4466;50.948;4.832;2023-08-24T14:33:41;4.65;;;1.58;;
8859;SDS011;4466;50.948;4.832;2023-08-24T14:36:07;6.75;;;1.83;;
8859;SDS011;4466;50.948;4.832;2023-08-24T14:38:33;3.72;;;1.83;;
8859;SDS011;4466;50.948;4.832;2023-08-24T14:40:58;3.25;;;1.70;;
8859;SDS011;4466;50.948;4.832;2023-08-24T14:43:26;5.47;;;1.60;;
8859;SDS011;4466;50.948;4.832;2023-08-24T14:45:53;5.47;;;1.80;;
8859;SDS011;4466;50.948;4.832;2023-08-24T14:48:19;6.70;;;1.60;;
8859;SDS011;4466;50.948;4.832;2023-08-24T14:50:46;4.18;;;1.60;;
8859;SDS011;4466;50.948;4.832;2023-08-24T14:53:11;3.10;;;1.73;;
8859;SDS011;4466;50.948;4.832;2023-08-24T14:55:41;6.35;;;1.80;;
8859;SDS011;4466;50.948;4.832;2023-08-24T14:58:07;5.28;;;1.55;;
8859;SDS011;4466;50.948;4.832;2023-08-24T15:00:33;5.32;;;1.35;;
8859;SDS011;4466;50.948;4.832;2023-08-24T15:02:59;5.97;;;1.80;;
8859;SDS011;4466;50.948;4.832;2023-08-24T15:05:24;7.85;;;1.90;;
8859;SDS011;4466;50.948;4.832;2023-08-24T15:07:50;5.32;;;1.73;;
8859;SDS011;4466;50.948;4.832;2023-08-24T15:10:16;3.10;;;1.35;;
8859;SDS011;4466;50.948;4.832;2023-08-24T15:12:43;3.92;;;1.48;;
8859;SDS011;4466;50.948;4.832;2023-08-24T15:15:14;1.60;;;1.13;;
8859;SDS011;4466;50.948;4.832;2023-08-24T15:17:42;3.55;;;1.50;;
8859;SDS011;4466;50.948;4.832;2023-08-24T15:20:09;2.38;;;1.40;;
8859;SDS011;4466;50.948;4.832;2023-08-24T15:22:39;4.35;;;1.42;;